Time;durP1;ratioP1;P1;durP2;ratioP2;P2;SDS_P1;SDS_P2;PMS_P1;PMS_P2;Temp;Humidity;BMP_temperature;BMP_pressure;BME280_temperature;BME280_humidity;BME280_pressure;Samples;Min_cycle;Max_cycle;Signal;HPM_P1;HPM_P2
2022/03/17 00:02:24;;;;;;;27.33;19.38;;;10.40;66.20;;;;;;5095093;27;20035;-69
2022/03/17 00:04:52;;;;;;;27.93;19.30;;;10.30;66.30;;;;;;5087539;27;20096;-69
2022/03/17 00:07:19;;;;;;;27.08;18.05;;;10.30;66.40;;;;;;5131546;27;20044;-69
2022/03/17 00:09:45;;;;;;;24.52;18.23;;;10.30;66.60;;;;;;5141068;27;20640;-69
2022/03/17 00:12:11;;;;;;;26.50;19.10;;;10.30;66.80;;;;;;5087637;27;20131;-69
2022/03/17 00:14:37;;;;;;;26.10;18.95;;;10.20;67.20;;;;;;5091180;27;20487;-69
2022/03/17 00:17:03;;;;;;;25.43;19.67;;;10.20;67.30;;;;;;5075849;28;20048;-69
2022/03/17 00:19:30;;;;;;;26.45;18.77;;;10.20;67.40;;;;;;5058100;28;20047;-69
2022/03/17 00:21:55;;;;;;;28.75;19.40;;;10.10;67.40;;;;;;5105825;28;20059;-69
2022/03/17 00:24:21;;;;;;;26.63;18.83;;;10.10;67.80;;;;;;5074214;28;20039;-69
2022/03/17 00:26:47;;;;;;;25.37;19.20;;;10.10;67.70;;;;;;5085208;28;20577;-69
2022/03/17 00:29:12;;;;;;;24.70;18.03;;;10.10;67.70;;;;;;5105418;27;20067;-69
2022/03/17 00:31:39;;;;;;;25.47;18.77;;;10.10;67.60;;;;;;5104008;27;20058;-69
2022/03/17 00:34:08;;;;;;;26.20;19.33;;;10.10;67.40;;;;;;5106479;28;20043;-69
2022/03/17 00:36:35;;;;;;;26.23;18.85;;;10.10;67.60;;;;;;5083574;27;20036;-69
2022/03/17 00:39:05;;;;;;;27.67;19.10;;;10.10;67.40;;;;;;5081812;28;20126;-69
2022/03/17 00:41:32;;;;;;;27.00;18.60;;;10.10;67.50;;;;;;5104335;27;20044;-69
2022/03/17 00:43:58;;;;;;;25.10;18.83;;;10.10;67.50;;;;;;5101350;28;20043;-69
2022/03/17 00:46:23;;;;;;;27.43;19.93;;;10.10;67.20;;;;;;5064821;27;20484;-69
2022/03/17 00:48:49;;;;;;;28.17;19.57;;;10.20;67.30;;;;;;5097441;28;20404;-69
2022/03/17 00:51:15;;;;;;;29.13;19.73;;;10.10;67.20;;;;;;5102581;27;20038;-69
2022/03/17 00:53:41;;;;;;;26.05;19.30;;;10.10;67.50;;;;;;5080197;28;20050;-69
2022/03/17 00:56:07;;;;;;;26.63;20.23;;;10.10;67.60;;;;;;5088630;28;20040;-69
2022/03/17 00:58:33;;;;;;;26.85;18.83;;;10.20;67.40;;;;;;5085168;28;20385;-69
2022/03/17 01:00:59;;;;;;;25.17;18.83;;;10.20;67.30;;;;;;5101298;28;20084;-69
2022/03/17 01:03:25;;;;;;;26.30;19.10;;;10.10;67.50;;;;;;5096588;28;20071;-69
2022/03/17 01:05:53;;;;;;;27.63;19.95;;;10.20;67.40;;;;;;5087166;28;20035;-69
2022/03/17 01:08:19;;;;;;;30.10;19.90;;;10.20;67.40;;;;;;5095839;28;20061;-69
2022/03/17 01:10:45;;;;;;;31.93;20.10;;;10.10;67.70;;;;;;5093581;28;20043;-69
2022/03/17 01:13:11;;;;;;;26.60;19.93;;;10.20;67.70;;;;;;5069095;28;20039;-69
2022/03/17 01:15:36;;;;;;;30.50;19.87;;;10.20;67.70;;;;;;5078873;28;20069;-69
2022/03/17 01:18:02;;;;;;;27.43;20.00;;;10.10;68.00;;;;;;5105776;28;20047;-69
2022/03/17 01:20:29;;;;;;;28.40;20.60;;;10.10;68.00;;;;;;5092543;28;20043;-69
2022/03/17 01:22:55;;;;;;;27.90;20.48;;;10.10;67.70;;;;;;5064100;28;20081;-69
2022/03/17 01:25:21;;;;;;;29.58;20.77;;;10.10;67.90;;;;;;5071890;28;20036;-69
2022/03/17 01:27:47;;;;;;;28.67;20.80;;;10.10;68.00;;;;;;5085365;28;20032;-69
2022/03/17 01:30:13;;;;;;;30.63;21.03;;;10.10;68.00;;;;;;5077112;28;20106;-69
2022/03/17 01:32:39;;;;;;;29.50;20.53;;;10.10;68.10;;;;;;5102849;28;20036;-69
2022/03/17 01:35:07;;;;;;;30.38;20.65;;;10.10;68.20;;;;;;5102480;28;20036;-69
2022/03/17 01:37:34;;;;;;;34.65;21.58;;;10.10;68.40;;;;;;5078351;28;20079;-69
2022/03/17 01:40:00;;;;;;;34.15;22.27;;;10.10;68.90;;;;;;5124048;27;20563;-69
2022/03/17 01:42:25;;;;;;;28.63;21.20;;;10.00;69.30;;;;;;5103375;28;20142;-69
2022/03/17 01:44:51;;;;;;;28.97;21.50;;;10.00;69.60;;;;;;5094439;28;20100;-69
2022/03/17 01:47:29;;;;;;;30.42;22.05;;;10.00;70.20;;;;;;5099034;28;20035;-69
2022/03/17 01:50:05;;;;;;;29.98;22.63;;;9.90;70.40;;;;;;5094177;28;20035;-69
2022/03/17 01:52:31;;;;;;;31.00;22.92;;;9.80;70.80;;;;;;5084256;28;20051;-69
2022/03/17 01:54:57;;;;;;;38.37;23.00;;;9.80;71.20;;;;;;5088603;28;20572;-69
2022/03/17 01:57:23;;;;;;;33.53;24.50;;;9.70;71.20;;;;;;5091177;28;20100;-69
2022/03/17 01:59:51;;;;;;;34.53;24.27;;;9.70;71.30;;;;;;5080569;28;20050;-69
2022/03/17 02:02:17;;;;;;;31.80;23.50;;;9.70;71.70;;;;;;5076508;28;20480;-69
2022/03/17 02:04:43;;;;;;;32.30;23.20;;;9.70;71.70;;;;;;5089458;28;20063;-69
2022/03/17 02:07:14;;;;;;;34.92;23.80;;;9.70;71.80;;;;;;5086150;28;20035;-69
2022/03/17 02:09:41;;;;;;;35.13;24.50;;;9.70;72.00;;;;;;5090240;28;20067;-69
2022/03/17 02:14:58;;;;;;;33.83;23.63;;;9.60;72.40;;;;;;5132716;27;20510;-69
2022/03/17 02:17:25;;;;;;;34.85;24.77;;;9.70;72.10;;;;;;5092636;27;20303;-69
2022/03/17 02:19:51;;;;;;;34.92;25.23;;;9.60;72.20;;;;;;5079037;28;20054;-69
2022/03/17 02:22:20;;;;;;;33.33;24.47;;;9.60;72.00;;;;;;5074456;28;20039;-69
2022/03/17 02:27:35;;;;;;;33.97;24.83;;;9.60;72.20;;;;;;5125276;27;20100;-69
2022/03/17 02:30:03;;;;;;;34.17;25.25;;;9.60;72.30;;;;;;5086875;28;20495;-69
2022/03/17 02:32:30;;;;;;;37.53;26.17;;;9.60;72.40;;;;;;5088532;28;20521;-69
2022/03/17 02:34:55;;;;;;;33.67;24.88;;;9.60;72.30;;;;;;5101818;28;20050;-69
2022/03/17 02:37:22;;;;;;;37.37;26.10;;;9.60;72.50;;;;;;5063356;28;20048;-69
2022/03/17 02:39:48;;;;;;;34.75;25.33;;;9.60;72.50;;;;;;5064392;28;20071;-69
2022/03/17 02:42:14;;;;;;;36.27;26.17;;;9.60;72.60;;;;;;5072312;27;20118;-69
2022/03/17 02:44:39;;;;;;;36.43;25.27;;;9.60;72.70;;;;;;5085124;28;20039;-69
2022/03/17 02:47:06;;;;;;;38.17;26.43;;;9.70;72.50;;;;;;5101660;27;20118;-69
2022/03/17 02:49:33;;;;;;;38.40;27.45;;;9.70;72.70;;;;;;5115716;27;20044;-69
2022/03/17 02:51:58;;;;;;;36.92;26.52;;;9.70;72.80;;;;;;5115467;27;20039;-69
2022/03/17 02:54:24;;;;;;;38.07;26.67;;;9.70;72.50;;;;;;5077280;28;20088;-69
2022/03/17 02:56:50;;;;;;;38.33;27.20;;;9.70;73.00;;;;;;5097529;28;20031;-69
2022/03/17 02:59:15;;;;;;;37.10;27.43;;;9.70;73.10;;;;;;5106812;28;20460;-69
2022/03/17 03:01:41;;;;;;;38.27;26.63;;;9.70;73.10;;;;;;5070488;28;20039;-69
2022/03/17 03:04:07;;;;;;;45.20;29.67;;;9.60;73.40;;;;;;5088923;28;20115;-69
2022/03/17 03:06:32;;;;;;;41.23;28.83;;;9.60;73.80;;;;;;5091417;27;20035;-69
2022/03/17 03:08:59;;;;;;;41.30;29.10;;;9.60;74.50;;;;;;5088086;28;20163;-69
2022/03/17 03:11:25;;;;;;;43.95;30.17;;;9.50;74.40;;;;;;5076821;28;20044;-69
2022/03/17 03:13:51;;;;;;;45.35;31.38;;;9.50;75.30;;;;;;5053890;28;20076;-69
2022/03/17 03:16:17;;;;;;;47.57;33.07;;;9.40;76.10;;;;;;5064210;28;20072;-68
2022/03/17 03:18:42;;;;;;;45.90;32.13;;;9.40;76.10;;;;;;5064802;28;20294;-69
2022/03/17 03:21:08;;;;;;;45.53;32.40;;;9.30;76.70;;;;;;5066774;28;20504;-69
2022/03/17 03:23:34;;;;;;;51.07;33.67;;;9.30;77.10;;;;;;5033047;28;20033;-69
2022/03/17 03:26:00;;;;;;;49.88;33.75;;;9.30;77.60;;;;;;5063117;28;20090;-69
2022/03/17 03:28:26;;;;;;;50.30;33.83;;;9.30;77.70;;;;;;5065686;28;20205;-69
2022/03/17 03:30:54;;;;;;;50.92;34.25;;;9.20;78.20;;;;;;5066812;28;20577;-70
2022/03/17 03:33:20;;;;;;;50.83;34.90;;;9.20;78.60;;;;;;5083647;28;20097;-70
2022/03/17 03:38:30;;;;;;;49.72;33.47;;;9.10;79.20;;;;;;5073973;28;20056;-70
2022/03/17 03:40:55;;;;;;;56.40;36.63;;;9.00;80.10;;;;;;5065814;28;20461;-70
2022/03/17 03:43:21;;;;;;;55.87;34.03;;;9.00;80.30;;;;;;5066167;28;20032;-70
2022/03/17 03:45:50;;;;;;;58.40;36.27;;;8.90;80.70;;;;;;5048720;28;20041;-70
2022/03/17 03:48:16;;;;;;;54.92;36.17;;;8.90;82.10;;;;;;5045845;28;20079;-70
2022/03/17 03:50:41;;;;;;;64.10;36.90;;;8.90;81.50;;;;;;5045524;28;20064;-70
2022/03/17 03:53:07;;;;;;;60.23;35.70;;;8.90;82.00;;;;;;5083621;28;20041;-70
2022/03/17 03:55:33;;;;;;;61.27;35.63;;;8.90;82.30;;;;;;5058958;28;20071;-70
2022/03/17 03:58:00;;;;;;;53.17;33.47;;;8.90;82.10;;;;;;5077273;28;20515;-70
2022/03/17 04:02:52;;;;;;;57.58;34.25;;;8.90;82.50;;;;;;5099495;28;20063;-70
2022/03/17 04:05:20;;;;;;;60.38;33.28;;;8.90;83.50;;;;;;5065589;28;20419;-70
2022/03/17 04:07:46;;;;;;;25.52;16.15;;;8.90;84.80;;;;;;5049241;28;20513;-70
2022/03/17 04:10:12;;;;;;;16.83;11.40;;;8.90;84.30;;;;;;5084438;28;20393;-70
2022/03/17 04:12:37;;;;;;;15.13;9.83;;;8.70;82.70;;;;;;5067172;28;20046;-70
2022/03/17 04:15:03;;;;;;;15.83;10.50;;;8.50;81.90;;;;;;5066424;28;20040;-70
2022/03/17 04:17:29;;;;;;;20.02;10.95;;;8.30;81.80;;;;;;5094264;28;20460;-71
2022/03/17 04:19:55;;;;;;;19.70;11.27;;;8.20;81.90;;;;;;5075399;28;20067;-71
2022/03/17 04:22:20;;;;;;;16.23;10.73;;;8.10;82.00;;;;;;5093132;28;20052;-72
2022/03/17 04:24:46;;;;;;;20.40;10.63;;;8.00;82.20;;;;;;5090722;28;20040;-72
2022/03/17 04:27:12;;;;;;;17.37;10.40;;;7.90;82.20;;;;;;5075467;28;20480;-72
2022/03/17 04:29:37;;;;;;;17.20;9.57;;;7.80;82.50;;;;;;5075800;28;20522;-72
2022/03/17 04:32:03;;;;;;;17.47;9.40;;;7.70;82.60;;;;;;5096265;28;20036;-71
2022/03/17 04:34:29;;;;;;;15.73;9.23;;;7.60;82.50;;;;;;5130483;27;20094;-71
2022/03/17 04:36:55;;;;;;;14.60;8.60;;;7.60;82.60;;;;;;5090518;28;20844;-71
2022/03/17 04:39:20;;;;;;;13.13;7.90;;;7.50;82.70;;;;;;5073561;28;20058;-71
2022/03/17 04:41:46;;;;;;;13.90;8.13;;;7.50;82.80;;;;;;5062062;28;20036;-71
2022/03/17 04:44:13;;;;;;;13.97;7.90;;;7.40;82.80;;;;;;5087357;28;20035;-71
2022/03/17 04:46:38;;;;;;;15.73;7.35;;;7.40;83.00;;;;;;5108503;27;20072;-71
2022/03/17 04:49:04;;;;;;;17.30;8.20;;;7.40;83.10;;;;;;5099506;27;20082;-71
2022/03/17 04:51:31;;;;;;;17.27;8.47;;;7.30;83.00;;;;;;5095485;28;20581;-71
2022/03/17 04:53:57;;;;;;;18.85;9.82;;;7.30;83.20;;;;;;5068328;28;20127;-71
2022/03/17 04:56:23;;;;;;;22.98;11.93;;;7.30;83.30;;;;;;5101511;28;20214;-71
2022/03/17 04:58:49;;;;;;;28.33;12.73;;;7.30;83.10;;;;;;5067393;28;20043;-71
2022/03/17 05:01:15;;;;;;;26.60;11.38;;;7.30;83.10;;;;;;5084322;28;20109;-71
2022/03/17 05:03:42;;;;;;;23.43;12.37;;;7.30;83.00;;;;;;5118147;27;20097;-70
2022/03/17 05:06:12;;;;;;;26.48;12.80;;;7.20;83.10;;;;;;5092984;28;20278;-70
2022/03/17 05:08:38;;;;;;;28.42;11.13;;;7.20;83.10;;;;;;5084648;28;20083;-70
2022/03/17 05:11:04;;;;;;;27.87;11.20;;;7.20;82.90;;;;;;5084776;28;20088;-70
2022/03/17 05:13:30;;;;;;;27.70;9.95;;;7.20;82.70;;;;;;5084865;28;20079;-70
2022/03/17 05:15:56;;;;;;;26.33;9.70;;;7.20;82.60;;;;;;5066932;28;20052;-70
2022/03/17 05:18:22;;;;;;;19.67;8.03;;;7.20;82.40;;;;;;5084228;28;20058;-70
2022/03/17 05:20:48;;;;;;;19.83;6.83;;;7.20;82.30;;;;;;5101709;28;20093;-70
2022/03/17 05:23:19;;;;;;;23.75;6.10;;;7.20;82.10;;;;;;5084910;28;20086;-70
2022/03/17 05:25:47;;;;;;;22.15;5.47;;;7.10;82.00;;;;;;5083327;28;20032;-70
2022/03/17 05:28:13;;;;;;;19.27;4.65;;;7.10;82.20;;;;;;5066487;28;20139;-70
2022/03/17 05:30:40;;;;;;;17.73;4.77;;;7.10;82.10;;;;;;5084750;28;20134;-70
2022/03/17 05:33:13;;;;;;;14.07;4.25;;;7.00;81.80;;;;;;5084776;28;20035;-70
2022/03/17 05:35:40;;;;;;;20.90;5.25;;;7.00;82.10;;;;;;5085182;28;20032;-70
2022/03/17 05:38:06;;;;;;;16.17;4.38;;;7.00;82.00;;;;;;5067047;28;20085;-70
2022/03/17 05:40:32;;;;;;;17.30;4.70;;;7.00;81.70;;;;;;5069470;28;20048;-70
2022/03/17 05:43:00;;;;;;;15.85;5.13;;;7.00;81.70;;;;;;5105160;28;20093;-70
2022/03/17 05:45:27;;;;;;;17.40;4.72;;;6.90;81.90;;;;;;5087726;28;20276;-70
2022/03/17 05:47:59;;;;;;;17.05;4.65;;;6.90;82.00;;;;;;5062194;28;20036;-70
2022/03/17 05:50:28;;;;;;;11.63;4.03;;;6.90;82.10;;;;;;5074759;28;20443;-70
2022/03/17 05:52:54;;;;;;;19.02;4.90;;;6.90;82.10;;;;;;5073768;28;20623;-70
2022/03/17 05:55:21;;;;;;;14.90;3.40;;;6.90;82.20;;;;;;5076277;28;20122;-70
2022/03/17 05:57:49;;;;;;;13.07;3.97;;;6.90;82.20;;;;;;5091973;28;20039;-70
2022/03/17 06:00:18;;;;;;;14.68;2.90;;;6.90;82.00;;;;;;5122944;27;20040;-70
2022/03/17 06:02:44;;;;;;;14.77;2.70;;;6.90;81.60;;;;;;5074364;28;20039;-70
2022/03/17 06:05:11;;;;;;;14.52;2.72;;;6.90;81.20;;;;;;5055063;28;20123;-70
2022/03/17 06:07:44;;;;;;;9.13;2.08;;;6.90;80.80;;;;;;5087958;28;20121;-70
2022/03/17 06:10:12;;;;;;;9.88;2.30;;;6.90;80.70;;;;;;5102729;28;20075;-70
2022/03/17 06:12:39;;;;;;;7.57;2.08;;;6.90;80.50;;;;;;5103529;28;20040;-70
2022/03/17 06:15:07;;;;;;;11.43;2.50;;;6.90;80.20;;;;;;5100907;28;20503;-70
2022/03/17 06:17:59;;;;;;;13.45;2.03;;;6.80;80.10;;;;;;5072357;28;20039;-70
2022/03/17 06:20:27;;;;;;;13.55;2.10;;;6.80;80.20;;;;;;5062963;28;20090;-70
2022/03/17 06:22:56;;;;;;;8.95;1.75;;;6.80;80.30;;;;;;5076376;28;20111;-70
2022/03/17 06:25:24;;;;;;;13.95;1.90;;;6.80;80.00;;;;;;5097661;28;20126;-70
2022/03/17 06:27:50;;;;;;;14.40;2.20;;;6.80;79.80;;;;;;5096207;28;20088;-70
2022/03/17 06:30:23;;;;;;;17.80;1.80;;;6.80;79.70;;;;;;5084005;28;20413;-70
2022/03/17 06:32:50;;;;;;;13.43;1.80;;;6.80;79.50;;;;;;5093731;28;20050;-70
2022/03/17 06:35:18;;;;;;;13.15;2.00;;;6.80;79.60;;;;;;5096493;28;20507;-70
2022/03/17 06:37:45;;;;;;;8.45;1.63;;;6.80;79.50;;;;;;5076599;28;20028;-70
2022/03/17 06:40:12;;;;;;;12.80;2.10;;;6.80;79.70;;;;;;5101505;28;20395;-70
2022/03/17 06:42:38;;;;;;;12.45;1.73;;;6.80;79.40;;;;;;5101324;28;20069;-70
2022/03/17 06:45:04;;;;;;;12.73;1.50;;;6.80;79.20;;;;;;5086908;28;20118;-70
2022/03/17 06:47:30;;;;;;;15.15;1.70;;;6.80;79.20;;;;;;5102820;28;20039;-70
2022/03/17 06:49:56;;;;;;;11.07;1.60;;;6.80;79.30;;;;;;5090155;28;20043;-70
2022/03/17 06:52:22;;;;;;;9.13;1.53;;;6.90;79.40;;;;;;5089964;28;20070;-69
2022/03/17 06:54:49;;;;;;;10.68;1.83;;;6.90;79.20;;;;;;5080126;28;20194;-69
2022/03/17 06:57:22;;;;;;;14.77;1.90;;;6.90;79.10;;;;;;5090383;28;20042;-69
2022/03/17 06:59:49;;;;;;;15.60;1.65;;;6.90;79.20;;;;;;5107398;28;20047;-69
2022/03/17 07:02:15;;;;;;;10.35;1.30;;;6.90;79.20;;;;;;5107894;28;20036;-70
2022/03/17 07:04:41;;;;;;;11.75;1.23;;;6.90;78.40;;;;;;5089498;28;20032;-70
2022/03/17 07:07:07;;;;;;;9.88;1.95;;;6.90;77.70;;;;;;5105790;28;20488;-69
2022/03/17 07:09:35;;;;;;;10.77;1.10;;;6.90;76.70;;;;;;5070707;28;20096;-70
2022/03/17 07:12:01;;;;;;;11.75;1.35;;;6.90;76.40;;;;;;5086411;28;20039;-70
2022/03/17 07:14:26;;;;;;;20.00;2.03;;;6.90;76.00;;;;;;5083538;28;20051;-70
2022/03/17 07:16:52;;;;;;;10.23;1.70;;;6.90;75.40;;;;;;5082852;28;20278;-69
2022/03/17 07:19:18;;;;;;;20.57;2.20;;;6.90;75.60;;;;;;5054915;28;20048;-70
2022/03/17 07:21:44;;;;;;;12.97;2.37;;;6.80;76.00;;;;;;5072558;28;20040;-70
2022/03/17 07:24:10;;;;;;;13.63;2.77;;;6.80;76.10;;;;;;5086394;28;20070;-69
2022/03/17 07:26:41;;;;;;;15.52;2.15;;;6.90;74.80;;;;;;5059944;28;20028;-69
2022/03/17 07:29:07;;;;;;;12.25;1.63;;;6.90;74.50;;;;;;5098193;28;20122;-69
2022/03/17 07:31:34;;;;;;;14.10;2.10;;;6.90;74.50;;;;;;5078532;28;20062;-70
2022/03/17 07:34:00;;;;;;;18.23;2.72;;;6.90;74.30;;;;;;5105416;28;20051;-69
2022/03/17 07:36:26;;;;;;;15.70;2.10;;;6.80;74.90;;;;;;5096568;28;20044;-70
2022/03/17 07:38:56;;;;;;;11.90;1.80;;;6.80;75.10;;;;;;5096548;28;20130;-70
2022/03/17 07:41:23;;;;;;;16.23;1.73;;;6.80;73.90;;;;;;5063726;28;20050;-70
2022/03/17 07:43:49;;;;;;;16.52;2.33;;;6.90;73.80;;;;;;5064815;28;20032;-70
2022/03/17 07:46:15;;;;;;;15.10;1.80;;;6.80;74.30;;;;;;5101858;28;20227;-70
2022/03/17 07:48:41;;;;;;;14.93;2.03;;;6.90;73.10;;;;;;5105455;28;20340;-70
2022/03/17 07:51:08;;;;;;;13.43;1.50;;;6.90;71.80;;;;;;5057836;28;20048;-70
2022/03/17 07:53:35;;;;;;;12.00;2.00;;;6.90;72.00;;;;;;5090706;28;20048;-70
2022/03/17 07:56:02;;;;;;;11.30;1.85;;;6.90;72.20;;;;;;5100255;28;20123;-69
2022/03/17 07:58:28;;;;;;;16.05;2.25;;;6.90;71.50;;;;;;5105361;28;20042;-69
2022/03/17 08:00:55;;;;;;;19.95;2.25;;;6.90;71.60;;;;;;5096973;28;20069;-69
2022/03/17 08:03:21;;;;;;;19.13;2.35;;;7.00;70.80;;;;;;5103961;28;20040;-69
2022/03/17 08:05:48;;;;;;;11.82;2.13;;;6.90;71.20;;;;;;5101270;28;20440;-69
2022/03/17 08:08:15;;;;;;;14.50;2.53;;;6.90;71.50;;;;;;5106578;27;20048;-69
2022/03/17 08:10:41;;;;;;;19.13;2.60;;;6.90;71.70;;;;;;5135737;27;20082;-69
2022/03/17 08:13:09;;;;;;;16.27;2.42;;;6.90;71.70;;;;;;5100997;28;20102;-69
2022/03/17 08:15:36;;;;;;;16.02;2.33;;;6.90;71.90;;;;;;5098901;27;20130;-70
2022/03/17 08:18:03;;;;;;;18.40;2.47;;;7.00;72.30;;;;;;5088933;27;20055;-69
2022/03/17 08:20:29;;;;;;;16.15;2.78;;;7.00;72.60;;;;;;5100410;27;20056;-69
2022/03/17 08:22:55;;;;;;;11.23;2.38;;;7.10;72.40;;;;;;5106051;28;20508;-69
2022/03/17 08:25:21;;;;;;;16.92;2.00;;;7.30;70.60;;;;;;5097478;28;20040;-69
2022/03/17 08:27:50;;;;;;;13.98;2.20;;;7.40;69.80;;;;;;5091634;28;20036;-69
2022/03/17 08:30:16;;;;;;;15.63;2.10;;;7.40;70.30;;;;;;5108692;27;20043;-69
2022/03/17 08:32:42;;;;;;;15.57;2.40;;;7.50;70.80;;;;;;5136124;27;20577;-69
2022/03/17 08:35:10;;;;;;;14.00;1.60;;;7.50;70.30;;;;;;5116800;27;20589;-69
2022/03/17 08:37:40;;;;;;;14.55;2.80;;;7.40;69.80;;;;;;5077337;28;20642;-69
2022/03/17 08:40:07;;;;;;;12.63;1.90;;;7.40;70.40;;;;;;5100186;27;20568;-70
2022/03/17 08:42:32;;;;;;;13.75;1.98;;;7.40;70.80;;;;;;5112395;27;20116;-69
2022/03/17 08:44:58;;;;;;;13.87;1.73;;;7.30;70.60;;;;;;5085451;27;20100;-70
2022/03/17 08:50:08;;;;;;;12.25;1.58;;;7.50;71.60;;;;;;5083263;28;20048;-70
2022/03/17 08:52:34;;;;;;;16.95;2.10;;;7.70;71.20;;;;;;5081103;28;20049;-69
2022/03/17 08:54:59;;;;;;;15.37;2.20;;;8.00;71.00;;;;;;5091654;28;20051;-69
2022/03/17 08:57:25;;;;;;;9.80;1.27;;;8.10;70.20;;;;;;5082746;28;20047;-70
2022/03/17 08:59:53;;;;;;;7.80;1.70;;;8.20;69.50;;;;;;5054667;28;20077;-69
2022/03/17 09:02:18;;;;;;;14.05;1.13;;;8.30;68.10;;;;;;5089618;28;20092;-69
2022/03/17 09:04:44;;;;;;;9.97;1.13;;;8.30;68.60;;;;;;5094106;28;20043;-69
2022/03/17 09:07:11;;;;;;;8.50;1.00;;;8.30;67.40;;;;;;5052963;28;20051;-69
2022/03/17 09:09:38;;;;;;;12.18;1.58;;;8.20;66.50;;;;;;5090415;28;20052;-69
2022/03/17 09:12:08;;;;;;;11.95;1.30;;;8.20;67.50;;;;;;5096737;28;20438;-69
2022/03/17 09:14:36;;;;;;;14.27;1.90;;;8.30;68.70;;;;;;5078746;28;20071;-70
2022/03/17 09:17:02;;;;;;;10.90;1.48;;;8.40;68.00;;;;;;5081618;28;20043;-69
2022/03/17 09:19:28;;;;;;;10.70;1.48;;;8.50;67.30;;;;;;5102625;28;20049;-69
2022/03/17 09:21:54;;;;;;;12.60;2.10;;;8.50;67.40;;;;;;5068303;28;20043;-69
2022/03/17 09:24:19;;;;;;;12.57;2.20;;;8.60;68.00;;;;;;5087717;28;20051;-69
2022/03/17 09:26:45;;;;;;;15.57;2.47;;;8.60;68.50;;;;;;5098409;28;20083;-69
2022/03/17 09:29:11;;;;;;;8.23;1.97;;;8.80;67.70;;;;;;5083447;28;20811;-70
2022/03/17 09:31:37;;;;;;;14.27;1.97;;;8.80;64.90;;;;;;5076488;28;20285;-70
2022/03/17 09:34:04;;;;;;;12.50;2.17;;;8.60;65.00;;;;;;5082444;28;20078;-70
2022/03/17 09:36:30;;;;;;;9.80;2.10;;;8.50;66.00;;;;;;5092107;28;20325;-69
2022/03/17 09:41:42;;;;;;;10.65;1.95;;;8.50;66.40;;;;;;5102395;28;20582;-69
2022/03/17 09:44:07;;;;;;;10.15;1.90;;;8.60;66.50;;;;;;5097338;28;20043;-69
2022/03/17 09:46:34;;;;;;;15.20;1.83;;;8.70;65.70;;;;;;5095808;28;20473;-69
2022/03/17 09:49:02;;;;;;;8.02;1.08;;;8.80;65.50;;;;;;5084193;28;20052;-69
2022/03/17 09:51:28;;;;;;;11.63;1.88;;;8.80;65.10;;;;;;5087919;28;20403;-69
2022/03/17 09:54:00;;;;;;;12.45;2.38;;;8.80;65.60;;;;;;5079089;28;20043;-69
2022/03/17 09:56:26;;;;;;;8.35;1.25;;;8.80;65.80;;;;;;5084811;28;20505;-69
2022/03/17 09:58:53;;;;;;;8.90;1.63;;;8.90;65.40;;;;;;5077808;28;20481;-69
2022/03/17 10:01:21;;;;;;;11.43;2.00;;;9.00;64.90;;;;;;5101873;28;20048;-69
2022/03/17 10:03:47;;;;;;;16.75;1.85;;;9.10;63.90;;;;;;5096431;28;20380;-69
2022/03/17 10:06:14;;;;;;;7.50;1.15;;;9.10;63.40;;;;;;5090137;28;20044;-69
2022/03/17 10:08:42;;;;;;;11.57;1.48;;;9.10;62.10;;;;;;5103017;28;20112;-69
2022/03/17 10:11:08;;;;;;;11.57;2.05;;;9.20;63.00;;;;;;5101140;28;20412;-70
2022/03/17 10:13:43;;;;;;;9.07;1.60;;;9.20;62.80;;;;;;5102853;28;20054;-70
2022/03/17 10:16:12;;;;;;;12.85;1.50;;;9.40;63.70;;;;;;5109525;28;20051;-70
2022/03/17 10:18:39;;;;;;;14.05;1.90;;;9.50;63.10;;;;;;5121686;27;20043;-70
2022/03/17 10:21:24;;;;;;;13.48;2.50;;;9.50;62.70;;;;;;5085787;28;20050;-70
2022/03/17 10:24:02;;;;;;;12.15;2.08;;;9.40;62.50;;;;;;5081926;28;20445;-70
2022/03/17 10:26:40;;;;;;;10.88;1.83;;;9.40;62.70;;;;;;5099923;28;20544;-69
2022/03/17 10:29:17;;;;;;;13.63;2.13;;;9.50;63.40;;;;;;5091564;28;20032;-70
2022/03/17 10:31:50;;;;;;;15.52;2.38;;;9.50;63.30;;;;;;5125694;27;20051;-70
2022/03/17 10:34:16;;;;;;;14.88;1.88;;;9.60;62.80;;;;;;5124418;27;20054;-70
2022/03/17 10:36:45;;;;;;;9.80;2.27;;;9.70;63.30;;;;;;5085918;27;20032;-70
2022/03/17 10:39:12;;;;;;;15.90;2.38;;;9.90;64.10;;;;;;5091770;28;20043;-70
2022/03/17 10:41:42;;;;;;;16.02;2.50;;;10.10;64.20;;;;;;5120988;27;20035;-70
2022/03/17 10:44:13;;;;;;;13.93;2.45;;;10.20;64.50;;;;;;5086887;27;20096;-69
2022/03/17 10:46:53;;;;;;;10.70;2.30;;;10.10;62.60;;;;;;5103844;27;20068;-69
2022/03/17 10:49:18;;;;;;;13.68;2.35;;;10.00;62.10;;;;;;5137007;27;20076;-69
2022/03/17 10:51:44;;;;;;;13.93;2.10;;;9.80;61.50;;;;;;5092410;27;20046;-70
2022/03/17 10:54:18;;;;;;;11.02;2.35;;;9.80;62.00;;;;;;5095440;28;20051;-70
2022/03/17 10:57:05;;;;;;;12.40;1.85;;;9.90;62.30;;;;;;5099666;27;20078;-70
2022/03/17 10:59:42;;;;;;;12.88;1.77;;;10.00;61.70;;;;;;5121737;27;20543;-70
2022/03/17 11:02:08;;;;;;;11.57;2.03;;;10.00;61.50;;;;;;5141682;27;20056;-70
2022/03/17 11:04:39;;;;;;;9.10;2.22;;;10.00;62.20;;;;;;5141459;27;20070;-70
2022/03/17 11:07:11;;;;;;;11.13;2.25;;;10.10;62.90;;;;;;5104802;27;20126;-70
2022/03/17 11:09:40;;;;;;;12.57;2.30;;;10.30;63.10;;;;;;5100835;27;20062;-70
2022/03/17 11:12:20;;;;;;;11.82;1.75;;;10.50;62.70;;;;;;5138623;27;20043;-70
2022/03/17 11:14:49;;;;;;;12.38;2.00;;;10.70;62.20;;;;;;5093947;27;20037;-70
2022/03/17 11:17:26;;;;;;;17.10;2.22;;;10.70;60.30;;;;;;5136128;27;20174;-70
2022/03/17 11:19:54;;;;;;;16.33;2.20;;;10.50;61.30;;;;;;5107852;27;20047;-70
2022/03/17 11:22:29;;;;;;;13.35;2.47;;;10.30;61.20;;;;;;5090245;27;20066;-70
2022/03/17 11:25:32;;;;;;;10.13;2.00;;;10.20;61.40;;;;;;5086938;28;20457;-70
2022/03/17 11:27:59;;;;;;;14.35;2.13;;;10.20;63.10;;;;;;5102670;27;20487;-70
2022/03/17 11:30:31;;;;;;;14.02;2.00;;;10.40;62.60;;;;;;5095738;27;20467;-70
2022/03/17 11:32:58;;;;;;;15.02;2.38;;;10.60;61.70;;;;;;5089187;27;20047;-70
2022/03/17 11:35:29;;;;;;;13.85;2.17;;;10.60;60.80;;;;;;5099771;28;20050;-70
2022/03/17 11:38:16;;;;;;;13.73;2.70;;;10.60;61.40;;;;;;5094433;28;20240;-70
2022/03/17 11:41:13;;;;;;;14.68;2.35;;;10.60;60.60;;;;;;5100477;27;20039;-70
2022/03/17 11:43:45;;;;;;;10.68;2.03;;;10.40;60.50;;;;;;5090950;27;20042;-70
2022/03/17 11:46:14;;;;;;;13.85;1.52;;;10.40;61.30;;;;;;5093452;27;20040;-70
2022/03/17 11:48:41;;;;;;;12.52;2.30;;;10.50;61.20;;;;;;5142632;27;20049;-70
2022/03/17 11:51:09;;;;;;;11.02;2.17;;;10.60;59.80;;;;;;5139909;27;20569;-70
2022/03/17 11:53:58;;;;;;;11.07;2.10;;;10.50;60.60;;;;;;5139818;27;20043;-70
2022/03/17 11:56:42;;;;;;;11.70;1.63;;;10.60;60.00;;;;;;5073025;27;20042;-70
2022/03/17 11:59:12;;;;;;;15.82;2.00;;;10.70;60.20;;;;;;5138734;27;20051;-70
2022/03/17 12:01:43;;;;;;;11.50;1.75;;;10.70;59.10;;;;;;5109254;27;20089;-70
2022/03/17 12:04:22;;;;;;;9.88;1.38;;;10.80;60.50;;;;;;5104659;27;20399;-70
2022/03/17 12:07:05;;;;;;;12.40;1.70;;;10.80;59.10;;;;;;5140645;27;20039;-70
2022/03/17 12:09:32;;;;;;;11.30;1.38;;;10.80;59.30;;;;;;5088535;27;20065;-70
2022/03/17 12:11:58;;;;;;;8.57;1.33;;;10.60;56.40;;;;;;5138291;27;20043;-70
2022/03/17 12:14:25;;;;;;;10.52;1.85;;;10.50;57.40;;;;;;5134172;27;20049;-70
2022/03/17 12:17:08;;;;;;;11.02;1.52;;;10.40;58.50;;;;;;5082088;28;20054;-70
2022/03/17 12:19:38;;;;;;;14.93;2.22;;;10.50;58.20;;;;;;5106382;28;20047;-70
2022/03/17 12:22:26;;;;;;;14.70;1.63;;;10.50;58.40;;;;;;5106024;27;20043;-70
2022/03/17 12:24:59;;;;;;;5.97;1.10;;;10.50;57.80;;;;;;5104396;28;20032;-70
2022/03/17 12:27:30;;;;;;;9.95;1.75;;;10.60;57.70;;;;;;5088928;28;20074;-70
2022/03/17 12:30:07;;;;;;;7.97;1.02;;;10.70;57.50;;;;;;5105790;28;20533;-70
2022/03/17 12:32:35;;;;;;;13.13;1.52;;;10.70;56.60;;;;;;5102340;28;20576;-70
2022/03/17 12:35:02;;;;;;;10.05;1.27;;;10.70;56.10;;;;;;5101575;27;20027;-70
2022/03/17 12:37:30;;;;;;;12.20;1.60;;;10.70;56.60;;;;;;5096568;28;20387;-70
2022/03/17 12:39:58;;;;;;;17.02;1.73;;;10.70;57.20;;;;;;5096502;27;20051;-70
2022/03/17 12:42:29;;;;;;;9.93;1.15;;;10.70;56.10;;;;;;5088767;28;20035;-70
2022/03/17 12:45:02;;;;;;;10.82;1.10;;;10.50;56.60;;;;;;5088712;27;20438;-70
2022/03/17 12:47:29;;;;;;;8.43;1.15;;;10.60;56.90;;;;;;5081701;28;20048;-70
2022/03/17 12:49:57;;;;;;;6.60;0.90;;;10.60;55.60;;;;;;5125665;27;20069;-70
2022/03/17 12:52:25;;;;;;;5.93;1.60;;;10.50;56.00;;;;;;5105775;28;20036;-70
2022/03/17 12:54:56;;;;;;;12.60;1.75;;;10.50;55.80;;;;;;5093100;28;20078;-70
2022/03/17 12:57:25;;;;;;;10.50;1.00;;;10.50;55.50;;;;;;5104662;28;20077;-70
2022/03/17 12:59:52;;;;;;;8.52;1.02;;;10.60;56.40;;;;;;5088376;28;20522;-70
2022/03/17 13:02:19;;;;;;;10.35;1.85;;;10.60;56.00;;;;;;5088788;28;20552;-70